Yvonne K. — PBLX — position and weather

sailwx.info

Track history (hours):
 
Tides and Currents Weather Stations Pressure Air Temp Water Temp Dewpoint Dewpoint Depression Visibility Wind Speed Wind Dir Waves Ship Positions

Yvonne K.

Last reported at 2015-Aug-31 07:30 UTC. Time now 2015-Aug-31 10:58 UTC.
Position N 39°19' W 009°50'.

Length 90 m; draft 4.6 m.

Type: Cargo ship. MMSI: 244948000.

Date/timePositionNaut miles runAvg speedWind from/ knotsBaromVisibWave heightAir tempDewpointWater temp
2015-Aug-31 07:30N 39°19' W 009°50'9 9.4
2015-Aug-31 06:33N 39°10' W 009°50'10 9.7
2015-Aug-31 05:33N 38°60' W 009°50'9 9.1
2015-Aug-31 04:33N 38°51' W 009°50'9 8.5
2015-Aug-31 03:33N 38°42' W 009°50'9 8.8
2015-Aug-31 02:33N 38°34' W 009°47'9 9.0
2015-Aug-31 01:33N 38°25' W 009°45'9 9.0
2015-Aug-31 00:33N 38°16' W 009°42'10 9.6
2015-Aug-30 23:33N 38°07' W 009°39'13 9.9
2015-Aug-30 22:16N 37°54' W 009°36'7 9.7
2015-Aug-30 21:33N 37°48' W 009°34'9 9.1
2015-Aug-30 20:33N 37°39' W 009°31'9 9.1
2015-Aug-30 19:33N 37°30' W 009°29'10 9.5
2015-Aug-30 18:33N 37°21' W 009°26'10 9.0
2015-Aug-30 17:27N 37°11' W 009°23'8 8.8
2015-Aug-30 16:33N 37°03' W 009°21'8 8.5
2015-Aug-30 15:33N 36°55' W 009°19'8 7.7
2015-Aug-30 14:33N 36°49' W 009°13'  
2015-Aug-24 00:10N 38°13' W 009°57'5 8.7
2015-Aug-23 23:33N 38°18' W 009°59'9 8.9
2015-Aug-23 22:33N 38°27' W 010°01'10 9.1
2015-Aug-23 21:29N 38°37' W 010°04'8 8.9
2015-Aug-23 20:33N 38°45' W 010°05'9 9.0
2015-Aug-23 19:33N 38°54' W 010°05'8 8.0
2015-Aug-23 18:32N 39°02' W 010°05'8 7.6
2015-Aug-23 17:33N 39°09' W 010°05'9 8.3
2015-Aug-23 16:30N 39°18' W 010°05'  
Track history (hours):
 
Tides and Currents Weather Stations Pressure Air Temp Water Temp Dewpoint Dewpoint Depression Visibility Wind Speed Wind Dir Waves Ship Positions

Yvonne K.

Last reported at 2015-Aug-31 07:30 UTC. Time now 2015-Aug-31 10:58 UTC.
Position N 39°19' W 009°50'.

Length 90 m; draft 4.6 m.

Type: Cargo ship. MMSI: 244948000.

Date/timePositionNaut miles runAvg speedWind from/ knotsBaromVisibWave heightAir tempDewpointWater temp
2015-Aug-31 07:30N 39°19' W 009°50'9 9.4
2015-Aug-31 06:33N 39°10' W 009°50'10 9.7
2015-Aug-31 05:33N 38°60' W 009°50'9 9.1
2015-Aug-31 04:33N 38°51' W 009°50'9 8.5
2015-Aug-31 03:33N 38°42' W 009°50'9 8.8
2015-Aug-31 02:33N 38°34' W 009°47'9 9.0
2015-Aug-31 01:33N 38°25' W 009°45'9 9.0
2015-Aug-31 00:33N 38°16' W 009°42'10 9.6
2015-Aug-30 23:33N 38°07' W 009°39'13 9.9
2015-Aug-30 22:16N 37°54' W 009°36'7 9.7
2015-Aug-30 21:33N 37°48' W 009°34'9 9.1
2015-Aug-30 20:33N 37°39' W 009°31'9 9.1
2015-Aug-30 19:33N 37°30' W 009°29'10 9.5
2015-Aug-30 18:33N 37°21' W 009°26'10 9.0
2015-Aug-30 17:27N 37°11' W 009°23'8 8.8
2015-Aug-30 16:33N 37°03' W 009°21'8 8.5
2015-Aug-30 15:33N 36°55' W 009°19'8 7.7
2015-Aug-30 14:33N 36°49' W 009°13'  
2015-Aug-24 00:10N 38°13' W 009°57'5 8.7
2015-Aug-23 23:33N 38°18' W 009°59'9 8.9
2015-Aug-23 22:33N 38°27' W 010°01'10 9.1
2015-Aug-23 21:29N 38°37' W 010°04'8 8.9
2015-Aug-23 20:33N 38°45' W 010°05'9 9.0
2015-Aug-23 19:33N 38°54' W 010°05'8 8.0
2015-Aug-23 18:32N 39°02' W 010°05'8 7.6
2015-Aug-23 17:33N 39°09' W 010°05'9 8.3
2015-Aug-23 16:30N 39°18' W 010°05'  

Dump ship's entire track history